createdAt,value
2019-03-01T00:00:40.390Z,6.60
2019-03-01T00:03:12.461Z,5.93
2019-03-01T00:06:11.709Z,6.10
2019-03-01T00:09:23.734Z,6.20
2019-03-01T00:12:22.730Z,6.33
2019-03-01T00:15:01.467Z,5.93
2019-03-01T00:18:14.418Z,5.50
2019-03-01T00:20:58.741Z,5.77
2019-03-01T00:23:56.536Z,6.27
2019-03-01T00:26:34.472Z,5.90
2019-03-01T00:29:45.674Z,5.77
2019-03-01T00:33:03.210Z,6.10
2019-03-01T00:36:10.512Z,5.80
2019-03-01T00:39:36.811Z,6.17
2019-03-01T00:42:40.604Z,5.57
2019-03-01T00:45:12.352Z,5.67
2019-03-01T00:47:42.647Z,5.87
2019-03-01T00:50:12.959Z,5.80
2019-03-01T00:52:43.293Z,5.20
2019-03-01T00:55:13.615Z,5.63
2019-03-01T00:57:44.003Z,5.30
2019-03-01T01:00:30.370Z,5.43
2019-03-01T01:03:00.737Z,5.53
2019-03-01T01:05:31.101Z,5.53
2019-03-01T01:08:01.410Z,5.90
2019-03-01T01:10:31.730Z,6.03
2019-03-01T01:13:02.104Z,5.70
2019-03-01T01:15:32.494Z,5.40
2019-03-01T01:18:02.864Z,5.70
2019-03-01T01:20:33.174Z,5.30
2019-03-01T01:23:03.499Z,5.97
2019-03-01T01:25:33.804Z,5.63
2019-03-01T01:28:04.138Z,5.33
2019-03-01T01:30:34.907Z,5.87
2019-03-01T01:33:05.333Z,5.93
2019-03-01T01:35:35.616Z,5.57
2019-03-01T01:38:09.033Z,6.10
2019-03-01T01:40:39.457Z,5.83
2019-03-01T01:43:11.418Z,6.03
2019-03-01T01:45:41.718Z,6.07
2019-03-01T01:48:12.046Z,6.20
2019-03-01T01:50:42.335Z,5.93
2019-03-01T01:53:12.652Z,5.90
2019-03-01T01:55:42.959Z,5.40
2019-03-01T01:58:13.459Z,5.77
2019-03-01T02:00:43.754Z,5.87
2019-03-01T02:03:14.137Z,5.83
2019-03-01T02:05:45.312Z,5.60
2019-03-01T02:08:16.018Z,5.92
2019-03-01T02:10:46.334Z,6.37
2019-03-01T02:13:16.987Z,5.70
2019-03-01T02:15:47.279Z,6.20
2019-03-01T02:18:18.388Z,5.07
2019-03-01T02:20:48.624Z,5.37
2019-03-01T02:23:19.369Z,5.30
2019-03-01T02:25:51.851Z,5.27
2019-03-01T02:28:22.254Z,5.70
2019-03-01T02:30:53.749Z,6.07
2019-03-01T02:33:24.105Z,6.47
2019-03-01T02:35:54.626Z,5.40
2019-03-01T02:38:25.211Z,5.97
2019-03-01T02:40:55.660Z,6.20
2019-03-01T02:43:26.002Z,5.90
2019-03-01T02:45:56.546Z,5.83
2019-03-01T02:48:27.822Z,5.33
2019-03-01T02:50:58.227Z,5.13
2019-03-01T02:53:28.737Z,4.90
2019-03-01T02:55:59.036Z,4.17
2019-03-01T02:58:29.395Z,3.97
2019-03-01T03:00:59.706Z,3.87
2019-03-01T03:03:30.026Z,3.67
2019-03-01T03:06:31.484Z,3.77
2019-03-01T03:09:01.801Z,3.53
2019-03-01T03:11:33.677Z,3.60
2019-03-01T03:14:03.992Z,3.53
2019-03-01T03:16:34.274Z,3.17
2019-03-01T03:19:05.557Z,3.37
2019-03-01T03:21:35.842Z,3.50
2019-03-01T03:24:06.160Z,3.60
2019-03-01T03:26:36.426Z,3.67
2019-03-01T03:29:06.764Z,3.47
2019-03-01T03:31:37.047Z,3.77
2019-03-01T03:34:07.371Z,3.80
2019-03-01T03:36:37.637Z,3.90
2019-03-01T03:39:11.578Z,3.90
2019-03-01T03:41:41.873Z,4.10
2019-03-01T03:44:12.257Z,3.73
2019-03-01T03:46:42.532Z,3.10
2019-03-01T03:49:12.847Z,3.90
2019-03-01T03:51:43.145Z,4.03
2019-03-01T03:54:13.451Z,3.03
2019-03-01T03:56:43.958Z,3.10
2019-03-01T03:59:14.280Z,3.50
2019-03-01T04:01:44.560Z,3.27
2019-03-01T04:04:14.882Z,3.10
2019-03-01T04:06:45.194Z,3.17
2019-03-01T04:09:15.498Z,3.00
2019-03-01T04:11:45.815Z,3.37
2019-03-01T04:14:16.144Z,2.93
2019-03-01T04:16:46.439Z,3.17
2019-03-01T04:19:16.753Z,3.07
2019-03-01T04:21:47.044Z,2.90
2019-03-01T04:24:17.361Z,3.20
2019-03-01T04:26:47.698Z,3.20
2019-03-01T04:29:17.998Z,3.20
2019-03-01T04:31:48.303Z,2.90
2019-03-01T04:34:18.606Z,3.10
2019-03-01T04:36:48.882Z,2.93
2019-03-01T04:39:19.222Z,2.90
2019-03-01T04:41:49.526Z,2.87
2019-03-01T04:44:19.847Z,2.80
2019-03-01T04:46:50.141Z,3.03
2019-03-01T04:49:20.472Z,2.77
2019-03-01T04:51:54.866Z,3.00
2019-03-01T04:54:25.186Z,2.70
2019-03-01T04:56:55.457Z,3.50
2019-03-01T04:59:25.777Z,2.80
2019-03-01T05:01:56.108Z,2.50
2019-03-01T05:04:26.458Z,2.70
2019-03-01T05:06:56.747Z,2.30
2019-03-01T05:09:27.242Z,2.50
2019-03-01T05:11:57.573Z,3.13
2019-03-01T05:14:30.096Z,2.73
2019-03-01T05:17:00.152Z,2.77
2019-03-01T05:19:30.913Z,2.95
2019-03-01T05:22:01.233Z,2.90
2019-03-01T05:24:31.701Z,2.23
2019-03-01T05:27:02.018Z,2.60
2019-03-01T05:29:32.331Z,2.35
2019-03-01T05:32:02.661Z,2.53
2019-03-01T05:34:33.253Z,2.47
2019-03-01T05:37:03.601Z,2.77
2019-03-01T05:39:34.972Z,2.87
2019-03-01T05:42:05.306Z,2.80
2019-03-01T05:44:35.636Z,2.50
2019-03-01T05:47:06.660Z,2.45
2019-03-01T05:49:37.108Z,2.50
2019-03-01T05:52:07.401Z,2.62
2019-03-01T05:54:37.752Z,3.50
2019-03-01T05:57:08.077Z,2.40
2019-03-01T05:59:38.445Z,2.50
2019-03-01T06:02:44.394Z,1.97
2019-03-01T06:05:27.679Z,2.30
2019-03-01T06:08:46.701Z,2.30
2019-03-01T06:11:35.250Z,2.40
2019-03-01T06:14:23.942Z,2.63
2019-03-01T06:17:50.476Z,2.40
2019-03-01T06:21:16.797Z,2.67
2019-03-01T06:24:25.019Z,2.60
2019-03-01T06:27:39.847Z,3.70
2019-03-01T06:30:33.060Z,9.63
2019-03-01T06:33:35.281Z,5.37
2019-03-01T06:36:28.242Z,3.30
2019-03-01T06:39:54.021Z,3.50
2019-03-01T06:42:54.386Z,4.60
2019-03-01T06:45:45.143Z,4.43
2019-03-01T06:48:25.061Z,5.13
2019-03-01T06:51:04.937Z,5.37
2019-03-01T06:53:35.239Z,4.00
2019-03-01T06:56:06.898Z,3.80
2019-03-01T06:58:43.728Z,3.70
2019-03-01T07:01:32.986Z,3.60
2019-03-01T07:04:22.159Z,3.93
2019-03-01T07:06:52.439Z,3.17
2019-03-01T07:09:23.152Z,3.70
2019-03-01T07:11:53.447Z,4.10
2019-03-01T07:14:23.780Z,3.70
2019-03-01T07:16:54.111Z,3.03
2019-03-01T07:19:24.460Z,4.90
2019-03-01T07:21:54.739Z,3.03
2019-03-01T07:24:25.171Z,3.60
2019-03-01T07:26:55.461Z,3.10
2019-03-01T07:29:25.791Z,2.70
2019-03-01T07:31:56.086Z,3.00
2019-03-01T07:34:26.459Z,2.40
2019-03-01T07:36:56.771Z,2.63
2019-03-01T07:39:28.093Z,2.73
2019-03-01T07:41:58.379Z,2.20
2019-03-01T07:44:28.734Z,2.43
2019-03-01T07:46:59.028Z,2.30
2019-03-01T07:49:29.362Z,2.30
2019-03-01T07:52:01.746Z,3.63
2019-03-01T07:54:31.666Z,4.13
2019-03-01T07:57:01.964Z,2.90
2019-03-01T07:59:37.968Z,2.60
2019-03-01T08:02:05.377Z,2.67
2019-03-01T08:04:36.163Z,2.20
2019-03-01T08:07:07.530Z,2.80
2019-03-01T08:09:41.174Z,2.65
2019-03-01T08:12:10.010Z,2.60
2019-03-01T08:14:40.376Z,2.67
2019-03-01T08:17:10.773Z,2.40
2019-03-01T08:19:41.136Z,1.95
2019-03-01T08:22:11.631Z,2.30
2019-03-01T08:24:42.904Z,2.80
2019-03-01T08:27:14.215Z,1.87
2019-03-01T08:29:44.986Z,2.00
2019-03-01T08:32:15.510Z,2.50
2019-03-01T08:34:45.859Z,2.03
2019-03-01T08:37:17.618Z,2.00
2019-03-01T08:39:49.726Z,2.15
2019-03-01T08:42:20.153Z,2.30
2019-03-01T08:44:50.957Z,2.47
2019-03-01T08:47:24.484Z,3.40
2019-03-01T08:49:53.633Z,3.70
2019-03-01T08:52:24.019Z,3.70
2019-03-01T08:54:54.663Z,3.60
2019-03-01T08:57:26.488Z,4.03
2019-03-01T09:00:01.058Z,3.43
2019-03-01T09:02:33.008Z,4.00
2019-03-01T09:05:05.241Z,4.97
2019-03-01T09:07:36.457Z,4.30
2019-03-01T09:10:07.902Z,5.23
2019-03-01T09:12:38.225Z,5.73
2019-03-01T09:15:10.406Z,6.27
2019-03-01T09:17:40.814Z,7.17
2019-03-01T09:20:13.924Z,5.73
2019-03-01T09:22:44.374Z,5.87
2019-03-01T09:25:15.053Z,7.33
2019-03-01T09:27:45.393Z,6.43
2019-03-01T09:30:21.066Z,5.67
2019-03-01T09:32:51.441Z,5.53
2019-03-01T09:35:42.782Z,7.03
2019-03-01T09:38:11.852Z,8.60
2019-03-01T09:40:42.353Z,8.33
2019-03-01T09:43:12.907Z,7.87
2019-03-01T09:45:45.683Z,4.97
2019-03-01T09:48:15.498Z,4.60
2019-03-01T09:50:45.911Z,5.67
2019-03-01T09:53:16.282Z,5.47
2019-03-01T09:55:46.689Z,4.30
2019-03-01T09:58:17.108Z,5.30
2019-03-01T10:00:56.236Z,3.53
2019-03-01T10:03:22.719Z,4.60
2019-03-01T10:05:53.040Z,3.67
2019-03-01T10:08:23.343Z,3.60
2019-03-01T10:10:53.728Z,2.80
2019-03-01T10:13:24.054Z,3.03
2019-03-01T10:15:54.430Z,4.17
2019-03-01T10:18:24.789Z,3.90
2019-03-01T10:20:55.282Z,3.17
2019-03-01T10:23:26.565Z,3.47
2019-03-01T10:25:56.946Z,2.90
2019-03-01T10:28:27.438Z,3.53
2019-03-01T10:30:57.795Z,3.07
2019-03-01T10:33:29.357Z,2.70
2019-03-01T10:36:00.850Z,2.87
2019-03-01T10:38:31.300Z,3.40
2019-03-01T10:41:01.809Z,2.60
2019-03-01T10:43:32.335Z,3.33
2019-03-01T10:46:03.857Z,6.20
2019-03-01T10:48:34.193Z,6.13
2019-03-01T10:51:04.633Z,9.13
2019-03-01T10:53:34.945Z,7.13
2019-03-01T10:56:05.369Z,5.40
2019-03-01T10:58:35.734Z,7.40
2019-03-01T11:01:06.483Z,8.00
2019-03-01T11:03:36.792Z,5.97
2019-03-01T11:06:12.102Z,4.50
2019-03-01T11:08:42.546Z,5.40
2019-03-01T11:11:13.135Z,5.40
2019-03-01T11:13:43.423Z,5.90
2019-03-01T11:16:13.893Z,5.47
2019-03-01T11:18:44.221Z,6.20
2019-03-01T11:21:14.792Z,4.70
2019-03-01T11:23:45.167Z,5.50
2019-03-01T11:26:15.683Z,5.30
2019-03-01T11:28:46.035Z,4.80
2019-03-01T11:31:16.669Z,4.70
2019-03-01T11:33:47.119Z,4.70
2019-03-01T11:36:17.538Z,5.70
2019-03-01T11:38:47.995Z,4.92
2019-03-01T11:41:18.398Z,8.37
2019-03-01T11:43:48.997Z,6.20
2019-03-01T11:46:19.480Z,5.50
2019-03-01T11:48:50.069Z,5.70
2019-03-01T11:51:20.442Z,6.27
2019-03-01T11:53:51.062Z,5.43
2019-03-01T11:56:21.394Z,8.43
2019-03-01T11:58:52.052Z,17.53
2019-03-01T12:01:22.651Z,16.83
2019-03-01T12:03:52.963Z,11.97
2019-03-01T12:06:23.313Z,9.40
2019-03-01T12:08:53.677Z,5.50
2019-03-01T12:11:24.965Z,8.00
2019-03-01T12:13:55.281Z,8.80
2019-03-01T12:16:25.731Z,5.20
2019-03-01T12:18:56.029Z,2.60
2019-03-01T12:21:27.490Z,3.13
2019-03-01T12:23:58.502Z,2.70
2019-03-01T12:26:28.810Z,3.17
2019-03-01T12:28:59.156Z,3.70
2019-03-01T12:31:29.988Z,3.10
2019-03-01T12:34:00.653Z,3.53
2019-03-01T12:36:32.063Z,3.67
2019-03-01T12:39:02.577Z,3.80
2019-03-01T12:41:34.993Z,3.90
2019-03-01T12:44:05.984Z,4.50
2019-03-01T12:46:36.338Z,4.60
2019-03-01T12:49:06.631Z,5.03
2019-03-01T12:51:37.046Z,4.60
2019-03-01T12:54:07.366Z,3.87
2019-03-01T12:56:37.678Z,3.70
2019-03-01T12:59:08.109Z,3.20
2019-03-01T13:01:38.436Z,3.83
2019-03-01T13:04:08.865Z,4.80
2019-03-01T13:06:39.929Z,4.30
2019-03-01T13:09:15.880Z,5.20
2019-03-01T13:11:48.658Z,5.23
2019-03-01T13:14:18.282Z,5.00
2019-03-01T13:16:48.615Z,5.07
2019-03-01T13:19:18.938Z,5.03
2019-03-01T13:21:49.307Z,4.80
2019-03-01T13:24:19.587Z,5.03
2019-03-01T13:26:49.927Z,4.83
2019-03-01T13:29:22.261Z,5.87
2019-03-01T13:31:52.214Z,6.87
2019-03-01T13:34:22.564Z,7.17
2019-03-01T13:36:52.886Z,7.70
2019-03-01T13:39:23.241Z,6.90
2019-03-01T13:41:53.744Z,8.13
2019-03-01T13:44:24.084Z,7.40
2019-03-01T13:46:54.396Z,8.53
2019-03-01T13:49:26.830Z,10.37
2019-03-01T13:51:56.710Z,10.47
2019-03-01T13:54:27.155Z,10.20
2019-03-01T13:56:57.561Z,10.43
2019-03-01T13:59:27.874Z,11.33
2019-03-01T14:01:58.217Z,10.70
2019-03-01T14:04:28.540Z,12.18
2019-03-01T14:06:58.867Z,11.00
2019-03-01T14:09:29.252Z,11.00
2019-03-01T14:12:00.383Z,10.90
2019-03-01T14:14:31.637Z,12.33
2019-03-01T14:17:01.936Z,11.97
2019-03-01T14:19:32.259Z,12.27
2019-03-01T14:22:10.354Z,11.77
2019-03-01T14:24:38.948Z,14.30
2019-03-01T14:27:09.344Z,14.43
2019-03-01T14:29:39.697Z,14.15
2019-03-01T14:32:10.906Z,13.43
2019-03-01T14:34:41.239Z,13.37
2019-03-01T14:37:11.553Z,12.57
2019-03-01T14:39:45.326Z,13.90
2019-03-01T14:42:13.827Z,14.70
2019-03-01T14:44:44.166Z,15.30
2019-03-01T14:47:33.806Z,16.90
2019-03-01T14:50:04.406Z,15.07
2019-03-01T14:52:34.768Z,16.27
2019-03-01T14:55:05.795Z,16.20
2019-03-01T14:57:43.122Z,16.97
2019-03-01T15:00:22.437Z,18.37
2019-03-01T15:03:27.171Z,16.07
2019-03-01T15:05:58.124Z,18.60
2019-03-01T15:08:28.793Z,19.83
2019-03-01T15:11:04.264Z,19.33
2019-03-01T15:13:34.699Z,17.73
2019-03-01T15:16:06.053Z,15.50
2019-03-01T15:18:37.567Z,15.87
2019-03-01T15:21:08.656Z,18.30
2019-03-01T15:23:39.009Z,13.00
2019-03-01T15:26:09.433Z,16.10
2019-03-01T15:28:56.199Z,17.37
2019-03-01T15:31:26.607Z,18.27
2019-03-01T15:33:56.979Z,19.90
2019-03-01T15:36:27.868Z,19.60
2019-03-01T15:38:58.197Z,17.63
2019-03-01T15:41:28.596Z,18.23
2019-03-01T15:43:59.054Z,18.07
2019-03-01T15:46:29.507Z,18.43
2019-03-01T15:49:01.667Z,20.03
2019-03-01T15:51:34.735Z,20.17
2019-03-01T15:54:03.948Z,21.07
2019-03-01T15:56:34.256Z,19.60
2019-03-01T15:59:06.001Z,21.03
2019-03-01T16:01:36.552Z,23.10
2019-03-01T16:04:06.884Z,20.40
2019-03-01T16:06:37.256Z,22.73
2019-03-01T16:09:14.253Z,22.97
2019-03-01T16:11:44.641Z,23.87
2019-03-01T16:14:14.976Z,20.73
2019-03-01T16:16:45.802Z,26.40
2019-03-01T16:19:17.326Z,25.57
2019-03-01T16:21:47.639Z,30.93
2019-03-01T16:24:18.941Z,26.30
2019-03-01T16:26:49.238Z,28.67
2019-03-01T16:29:19.580Z,31.90
2019-03-01T16:31:50.502Z,26.73
2019-03-01T16:34:20.837Z,30.17
2019-03-01T16:36:54.122Z,30.60
2019-03-01T16:39:24.779Z,32.50
2019-03-01T16:41:55.180Z,28.70
2019-03-01T16:44:25.520Z,34.37
2019-03-01T16:46:55.815Z,34.90
2019-03-01T16:49:27.160Z,34.93
2019-03-01T16:51:59.111Z,37.00
2019-03-01T16:54:30.940Z,36.27
2019-03-01T16:57:02.714Z,36.57
2019-03-01T16:59:33.183Z,39.97
2019-03-01T17:02:06.617Z,36.28
2019-03-01T17:04:35.714Z,38.93
2019-03-01T17:07:06.234Z,39.33
2019-03-01T17:09:36.728Z,38.78
2019-03-01T17:12:07.326Z,40.07
2019-03-01T17:14:43.407Z,40.52
2019-03-01T17:17:13.902Z,42.17
2019-03-01T17:19:44.326Z,43.93
2019-03-01T17:22:15.065Z,41.90
2019-03-01T17:24:48.240Z,43.42
2019-03-01T17:27:17.438Z,41.83
2019-03-01T17:29:47.894Z,44.63
2019-03-01T17:32:18.330Z,39.87
2019-03-01T17:34:52.031Z,37.45
2019-03-01T17:37:21.498Z,39.30
2019-03-01T17:39:53.145Z,40.05
2019-03-01T17:42:23.973Z,38.00
2019-03-01T17:44:54.674Z,39.73
2019-03-01T17:47:25.308Z,40.97
2019-03-01T17:49:58.493Z,40.60
2019-03-01T17:52:30.569Z,31.73
2019-03-01T17:55:02.742Z,36.20
2019-03-01T17:57:34.015Z,37.10
2019-03-01T18:00:07.849Z,35.97
2019-03-01T18:02:38.213Z,39.83
2019-03-01T18:05:09.218Z,38.93
2019-03-01T18:07:39.523Z,39.80
2019-03-01T18:10:10.871Z,41.33
2019-03-01T18:12:41.170Z,38.60
2019-03-01T18:15:13.412Z,28.43
2019-03-01T18:17:44.694Z,35.23
2019-03-01T18:20:14.998Z,33.67
2019-03-01T18:22:45.839Z,24.67
2019-03-01T18:25:16.268Z,34.37
2019-03-01T18:27:49.653Z,33.23
2019-03-01T18:30:21.009Z,35.93
2019-03-01T18:32:52.634Z,36.00
2019-03-01T18:35:23.586Z,32.07
2019-03-01T18:37:55.117Z,31.40
2019-03-01T18:40:26.870Z,36.87
2019-03-01T18:42:58.824Z,38.17
2019-03-01T18:45:29.127Z,40.37
2019-03-01T18:47:59.433Z,39.13
2019-03-01T18:50:31.192Z,45.27
2019-03-01T18:53:04.020Z,41.77
2019-03-01T18:55:34.607Z,42.40
2019-03-01T18:58:05.020Z,40.80
2019-03-01T19:00:37.035Z,38.63
2019-03-01T19:03:07.533Z,39.53
2019-03-01T19:05:40.106Z,37.60
2019-03-01T19:08:09.962Z,38.83
2019-03-01T19:10:40.305Z,38.47
2019-03-01T19:13:12.433Z,38.70
2019-03-01T19:15:42.885Z,38.33
2019-03-01T19:18:13.504Z,37.23
2019-03-01T19:20:45.253Z,38.47
2019-03-01T19:23:15.661Z,37.10
2019-03-01T19:25:45.969Z,38.13
2019-03-01T19:28:16.306Z,39.13
2019-03-01T19:30:49.217Z,40.57
2019-03-01T19:33:18.567Z,38.67
2019-03-01T19:35:48.861Z,38.13
2019-03-01T19:38:21.816Z,37.20
2019-03-01T19:40:51.263Z,39.40
2019-03-01T19:43:21.598Z,40.53
2019-03-01T19:45:53.508Z,38.97
2019-03-01T19:48:24.084Z,40.13
2019-03-01T19:50:54.433Z,40.23
2019-03-01T19:53:25.544Z,41.10
2019-03-01T19:55:56.915Z,41.87
2019-03-01T19:58:27.905Z,40.23
2019-03-01T20:00:59.222Z,41.43
2019-03-01T20:03:29.587Z,40.67
2019-03-01T20:06:00.148Z,40.27
2019-03-01T20:08:30.932Z,40.70
2019-03-01T20:11:01.644Z,42.33
2019-03-01T20:13:32.010Z,42.00
2019-03-01T20:16:02.325Z,41.23
2019-03-01T20:18:33.140Z,41.90
2019-03-01T20:21:05.839Z,42.63
2019-03-01T20:23:35.492Z,40.27
2019-03-01T20:26:05.813Z,40.57
2019-03-01T20:28:37.914Z,42.50
2019-03-01T20:31:08.234Z,40.70
2019-03-01T20:33:38.654Z,32.13
2019-03-01T20:36:09.094Z,32.07
2019-03-01T20:38:40.053Z,37.83
2019-03-01T20:41:15.077Z,37.57
2019-03-01T20:43:47.850Z,34.47
2019-03-01T20:46:20.632Z,35.90
2019-03-01T20:48:53.194Z,31.60
2019-03-01T20:51:26.852Z,32.80
2019-03-01T20:54:01.063Z,31.42
2019-03-01T20:56:33.745Z,31.13
2019-03-01T20:59:07.143Z,30.57
2019-03-01T21:01:38.382Z,28.47
2019-03-01T21:04:08.845Z,29.87
2019-03-01T21:06:40.610Z,29.83
2019-03-01T21:09:11.150Z,30.30
2019-03-01T21:11:41.891Z,27.97
2019-03-01T21:14:14.420Z,28.53
2019-03-01T21:16:45.780Z,28.00
2019-03-01T21:19:18.174Z,26.60
2019-03-01T21:21:53.057Z,27.20
2019-03-01T21:24:26.572Z,28.17
2019-03-01T21:26:59.741Z,27.47
2019-03-01T21:29:32.330Z,26.87
2019-03-01T21:32:04.957Z,28.30
2019-03-01T21:34:41.473Z,29.10
2019-03-01T21:37:14.184Z,29.23
2019-03-01T21:39:46.633Z,27.77
2019-03-01T21:42:20.254Z,29.03
2019-03-01T21:44:54.497Z,29.43
2019-03-01T21:47:27.910Z,28.13
2019-03-01T21:50:03.793Z,29.17
2019-03-01T21:52:34.215Z,28.63
2019-03-01T21:55:08.800Z,27.00
2019-03-01T21:57:42.362Z,28.17
2019-03-01T22:00:18.349Z,28.27
2019-03-01T22:02:52.793Z,29.80
2019-03-01T22:05:25.381Z,29.17
2019-03-01T22:07:58.854Z,29.77
2019-03-01T22:10:39.579Z,29.93
2019-03-01T22:13:10.399Z,29.90
2019-03-01T22:15:42.565Z,30.30
2019-03-01T22:18:12.900Z,30.40
2019-03-01T22:20:44.836Z,30.17
2019-03-01T22:23:15.798Z,29.50
2019-03-01T22:25:46.779Z,29.60
2019-03-01T22:28:21.199Z,30.40
2019-03-01T22:30:52.332Z,31.43
2019-03-01T22:33:22.693Z,31.53
2019-03-01T22:35:52.989Z,30.10
2019-03-01T22:38:23.379Z,30.23
2019-03-01T22:40:53.668Z,31.57
2019-03-01T22:43:26.209Z,29.10
2019-03-01T22:45:55.972Z,32.27
2019-03-01T22:48:27.000Z,33.30
2019-03-01T22:50:57.310Z,30.77
2019-03-01T22:53:27.658Z,32.50
2019-03-01T22:55:58.008Z,32.90
2019-03-01T22:58:28.362Z,32.37
2019-03-01T23:01:16.024Z,33.63
2019-03-01T23:03:54.871Z,33.80
2019-03-01T23:06:41.650Z,30.40
2019-03-01T23:09:42.611Z,31.70
2019-03-01T23:12:14.801Z,30.73
2019-03-01T23:14:45.212Z,30.17
2019-03-01T23:17:34.721Z,32.33
2019-03-01T23:20:06.165Z,28.60
2019-03-01T23:22:36.551Z,28.83
2019-03-01T23:25:07.661Z,29.20
2019-03-01T23:27:38.923Z,29.50
2019-03-01T23:30:09.367Z,32.90
2019-03-01T23:32:39.682Z,34.27
2019-03-01T23:35:10.082Z,30.30
2019-03-01T23:37:40.398Z,29.87
2019-03-01T23:40:12.950Z,30.63
2019-03-01T23:42:43.501Z,30.63
2019-03-01T23:45:17.423Z,32.27
2019-03-01T23:47:47.375Z,30.00
2019-03-01T23:50:17.985Z,29.07
2019-03-01T23:52:48.379Z,29.30
2019-03-01T23:55:19.995Z,30.00
2019-03-01T23:57:50.569Z,28.93
